sensor_id;sensor_type;location;lat;lon;timestamp;P1;durP1;ratioP1;P2;durP2;ratioP2
13303;SDS011;6720;51.958;4.540;2024-02-04T00:01:17;31.43;;;12.70;;
13303;SDS011;6720;51.958;4.540;2024-02-04T00:03:43;29.13;;;13.33;;
13303;SDS011;6720;51.958;4.540;2024-02-04T00:06:08;32.03;;;14.27;;
13303;SDS011;6720;51.958;4.540;2024-02-04T00:08:33;31.30;;;13.60;;
13303;SDS011;6720;51.958;4.540;2024-02-04T00:10:59;27.03;;;13.20;;
13303;SDS011;6720;51.958;4.540;2024-02-04T00:13:24;26.60;;;13.20;;
13303;SDS011;6720;51.958;4.540;2024-02-04T00:15:50;25.60;;;13.53;;
13303;SDS011;6720;51.958;4.540;2024-02-04T00:18:19;26.27;;;12.47;;
13303;SDS011;6720;51.958;4.540;2024-02-04T00:20:44;29.87;;;12.97;;
13303;SDS011;6720;51.958;4.540;2024-02-04T00:23:10;29.27;;;12.70;;
13303;SDS011;6720;51.958;4.540;2024-02-04T00:25:35;30.90;;;12.93;;
13303;SDS011;6720;51.958;4.540;2024-02-04T00:28:01;26.90;;;12.33;;
13303;SDS011;6720;51.958;4.540;2024-02-04T00:30:26;29.13;;;13.00;;
13303;SDS011;6720;51.958;4.540;2024-02-04T00:32:51;29.27;;;12.27;;
13303;SDS011;6720;51.958;4.540;2024-02-04T00:35:17;26.77;;;12.80;;
13303;SDS011;6720;51.958;4.540;2024-02-04T00:37:42;33.27;;;13.20;;
13303;SDS011;6720;51.958;4.540;2024-02-04T00:40:11;32.83;;;13.27;;
13303;SDS011;6720;51.958;4.540;2024-02-04T00:42:36;32.30;;;13.27;;
13303;SDS011;6720;51.958;4.540;2024-02-04T00:45:02;33.30;;;14.43;;
13303;SDS011;6720;51.958;4.540;2024-02-04T00:47:27;29.80;;;13.90;;
13303;SDS011;6720;51.958;4.540;2024-02-04T00:49:52;30.70;;;12.23;;
13303;SDS011;6720;51.958;4.540;2024-02-04T00:52:19;27.30;;;12.90;;
13303;SDS011;6720;51.958;4.540;2024-02-04T00:54:44;31.13;;;13.63;;
13303;SDS011;6720;51.958;4.540;2024-02-04T00:57:09;29.17;;;13.70;;
13303;SDS011;6720;51.958;4.540;2024-02-04T00:59:35;30.57;;;13.83;;
13303;SDS011;6720;51.958;4.540;2024-02-04T01:02:00;25.93;;;13.53;;
13303;SDS011;6720;51.958;4.540;2024-02-04T01:04:25;30.03;;;13.53;;
13303;SDS011;6720;51.958;4.540;2024-02-04T01:06:53;32.50;;;13.83;;
13303;SDS011;6720;51.958;4.540;2024-02-04T01:09:19;31.47;;;13.83;;
13303;SDS011;6720;51.958;4.540;2024-02-04T01:11:44;28.10;;;13.50;;
13303;SDS011;6720;51.958;4.540;2024-02-04T01:14:10;27.17;;;12.17;;
13303;SDS011;6720;51.958;4.540;2024-02-04T01:16:35;29.53;;;14.67;;
13303;SDS011;6720;51.958;4.540;2024-02-04T01:19:01;32.20;;;14.53;;
13303;SDS011;6720;51.958;4.540;2024-02-04T01:21:26;32.47;;;13.83;;
13303;SDS011;6720;51.958;4.540;2024-02-04T01:23:52;28.47;;;13.33;;
13303;SDS011;6720;51.958;4.540;2024-02-04T01:26:18;29.50;;;13.77;;
13303;SDS011;6720;51.958;4.540;2024-02-04T01:28:44;23.67;;;13.60;;
13303;SDS011;6720;51.958;4.540;2024-02-04T01:31:09;25.17;;;12.53;;
13303;SDS011;6720;51.958;4.540;2024-02-04T01:33:34;29.20;;;13.83;;
13303;SDS011;6720;51.958;4.540;2024-02-04T01:36:00;25.50;;;13.13;;
13303;SDS011;6720;51.958;4.540;2024-02-04T01:38:25;26.87;;;13.17;;
13303;SDS011;6720;51.958;4.540;2024-02-04T01:40:50;29.67;;;12.63;;
13303;SDS011;6720;51.958;4.540;2024-02-04T01:43:17;25.63;;;12.33;;
13303;SDS011;6720;51.958;4.540;2024-02-04T01:45:43;27.03;;;12.47;;
13303;SDS011;6720;51.958;4.540;2024-02-04T01:48:08;29.10;;;12.90;;
13303;SDS011;6720;51.958;4.540;2024-02-04T01:50:34;28.00;;;12.77;;
13303;SDS011;6720;51.958;4.540;2024-02-04T01:52:59;24.40;;;11.67;;
13303;SDS011;6720;51.958;4.540;2024-02-04T01:55:25;18.43;;;11.20;;
13303;SDS011;6720;51.958;4.540;2024-02-04T01:57:51;21.37;;;10.90;;
13303;SDS011;6720;51.958;4.540;2024-02-04T02:00:16;21.37;;;11.53;;
13303;SDS011;6720;51.958;4.540;2024-02-04T02:02:43;20.97;;;10.33;;
13303;SDS011;6720;51.958;4.540;2024-02-04T02:05:11;25.53;;;11.43;;
13303;SDS011;6720;51.958;4.540;2024-02-04T02:07:36;24.90;;;11.27;;
13303;SDS011;6720;51.958;4.540;2024-02-04T02:10:02;23.77;;;11.70;;
13303;SDS011;6720;51.958;4.540;2024-02-04T02:12:32;22.17;;;11.90;;
13303;SDS011;6720;51.958;4.540;2024-02-04T02:15:21;21.47;;;11.70;;
13303;SDS011;6720;51.958;4.540;2024-02-04T02:23:06;22.43;;;11.70;;
13303;SDS011;6720;51.958;4.540;2024-02-04T02:25:33;24.37;;;11.77;;
13303;SDS011;6720;51.958;4.540;2024-02-04T02:28:01;23.47;;;12.20;;
13303;SDS011;6720;51.958;4.540;2024-02-04T02:30:26;25.00;;;11.77;;
13303;SDS011;6720;51.958;4.540;2024-02-04T02:32:51;20.37;;;11.80;;
13303;SDS011;6720;51.958;4.540;2024-02-04T02:35:17;22.70;;;12.37;;
13303;SDS011;6720;51.958;4.540;2024-02-04T02:40:29;26.10;;;12.40;;
13303;SDS011;6720;51.958;4.540;2024-02-04T02:42:57;22.40;;;13.07;;
13303;SDS011;6720;51.958;4.540;2024-02-04T02:45:26;24.73;;;12.03;;
13303;SDS011;6720;51.958;4.540;2024-02-04T02:47:52;21.43;;;12.60;;
13303;SDS011;6720;51.958;4.540;2024-02-04T02:50:19;24.47;;;12.30;;
13303;SDS011;6720;51.958;4.540;2024-02-04T02:52:45;19.87;;;12.97;;
13303;SDS011;6720;51.958;4.540;2024-02-04T02:55:10;21.30;;;12.27;;
13303;SDS011;6720;51.958;4.540;2024-02-04T02:57:36;22.07;;;12.80;;
13303;SDS011;6720;51.958;4.540;2024-02-04T03:00:01;26.43;;;13.07;;
13303;SDS011;6720;51.958;4.540;2024-02-04T03:02:28;24.30;;;12.17;;
13303;SDS011;6720;51.958;4.540;2024-02-04T03:04:54;21.13;;;11.10;;
13303;SDS011;6720;51.958;4.540;2024-02-04T03:07:19;17.73;;;10.50;;
13303;SDS011;6720;51.958;4.540;2024-02-04T03:09:46;22.27;;;11.70;;
13303;SDS011;6720;51.958;4.540;2024-02-04T03:12:13;21.23;;;10.63;;
13303;SDS011;6720;51.958;4.540;2024-02-04T03:14:38;24.43;;;10.17;;
13303;SDS011;6720;51.958;4.540;2024-02-04T03:17:04;21.63;;;11.33;;
13303;SDS011;6720;51.958;4.540;2024-02-04T03:19:29;25.73;;;11.20;;
13303;SDS011;6720;51.958;4.540;2024-02-04T03:21:54;21.70;;;10.00;;
13303;SDS011;6720;51.958;4.540;2024-02-04T03:24:20;20.53;;;9.87;;
13303;SDS011;6720;51.958;4.540;2024-02-04T03:26:45;18.23;;;9.90;;
13303;SDS011;6720;51.958;4.540;2024-02-04T03:29:11;21.37;;;9.47;;
13303;SDS011;6720;51.958;4.540;2024-02-04T03:31:36;17.47;;;9.80;;
13303;SDS011;6720;51.958;4.540;2024-02-04T03:34:01;18.97;;;9.47;;
13303;SDS011;6720;51.958;4.540;2024-02-04T03:36:27;17.07;;;9.53;;
13303;SDS011;6720;51.958;4.540;2024-02-04T03:38:52;20.47;;;9.30;;
13303;SDS011;6720;51.958;4.540;2024-02-04T03:41:18;19.60;;;9.40;;
13303;SDS011;6720;51.958;4.540;2024-02-04T03:43:44;15.50;;;8.73;;
13303;SDS011;6720;51.958;4.540;2024-02-04T03:46:16;16.20;;;8.70;;
13303;SDS011;6720;51.958;4.540;2024-02-04T03:48:42;16.60;;;8.17;;
13303;SDS011;6720;51.958;4.540;2024-02-04T03:51:08;17.23;;;8.00;;
13303;SDS011;6720;51.958;4.540;2024-02-04T03:53:33;19.67;;;9.43;;
13303;SDS011;6720;51.958;4.540;2024-02-04T03:55:59;17.70;;;8.90;;
13303;SDS011;6720;51.958;4.540;2024-02-04T03:58:24;16.73;;;9.43;;
13303;SDS011;6720;51.958;4.540;2024-02-04T04:00:57;18.27;;;9.33;;
13303;SDS011;6720;51.958;4.540;2024-02-04T04:03:23;20.67;;;9.67;;
13303;SDS011;6720;51.958;4.540;2024-02-04T04:05:49;22.27;;;12.83;;
13303;SDS011;6720;51.958;4.540;2024-02-04T04:08:15;25.80;;;14.77;;
13303;SDS011;6720;51.958;4.540;2024-02-04T04:10:41;24.87;;;14.17;;
13303;SDS011;6720;51.958;4.540;2024-02-04T04:13:06;29.07;;;14.30;;
13303;SDS011;6720;51.958;4.540;2024-02-04T04:15:32;25.30;;;14.30;;
13303;SDS011;6720;51.958;4.540;2024-02-04T04:17:57;29.10;;;14.97;;
13303;SDS011;6720;51.958;4.540;2024-02-04T04:20:23;25.17;;;14.03;;
13303;SDS011;6720;51.958;4.540;2024-02-04T04:22:48;21.23;;;12.83;;
13303;SDS011;6720;51.958;4.540;2024-02-04T04:25:14;18.57;;;12.37;;
13303;SDS011;6720;51.958;4.540;2024-02-04T04:27:39;22.77;;;12.20;;
13303;SDS011;6720;51.958;4.540;2024-02-04T04:30:05;23.37;;;12.03;;
13303;SDS011;6720;51.958;4.540;2024-02-04T04:32:31;20.03;;;12.13;;
13303;SDS011;6720;51.958;4.540;2024-02-04T04:34:58;27.80;;;11.70;;
13303;SDS011;6720;51.958;4.540;2024-02-04T04:37:23;19.20;;;11.37;;
13303;SDS011;6720;51.958;4.540;2024-02-04T04:39:49;20.90;;;10.67;;
13303;SDS011;6720;51.958;4.540;2024-02-04T04:42:14;22.83;;;10.97;;
13303;SDS011;6720;51.958;4.540;2024-02-04T04:44:40;27.70;;;11.77;;
13303;SDS011;6720;51.958;4.540;2024-02-04T04:47:05;21.27;;;11.37;;
13303;SDS011;6720;51.958;4.540;2024-02-04T04:49:30;22.77;;;10.97;;
13303;SDS011;6720;51.958;4.540;2024-02-04T04:51:56;28.03;;;11.93;;
13303;SDS011;6720;51.958;4.540;2024-02-04T04:54:21;22.87;;;10.50;;
13303;SDS011;6720;51.958;4.540;2024-02-04T04:56:47;21.90;;;10.77;;
13303;SDS011;6720;51.958;4.540;2024-02-04T04:59:12;21.57;;;11.03;;
13303;SDS011;6720;51.958;4.540;2024-02-04T05:01:44;19.60;;;9.30;;
13303;SDS011;6720;51.958;4.540;2024-02-04T05:04:11;23.23;;;9.83;;
13303;SDS011;6720;51.958;4.540;2024-02-04T05:06:37;21.33;;;10.03;;
13303;SDS011;6720;51.958;4.540;2024-02-04T05:09:02;21.63;;;9.27;;
13303;SDS011;6720;51.958;4.540;2024-02-04T05:11:28;26.27;;;9.67;;
13303;SDS011;6720;51.958;4.540;2024-02-04T05:13:53;19.80;;;8.93;;
13303;SDS011;6720;51.958;4.540;2024-02-04T05:16:19;25.30;;;8.93;;
13303;SDS011;6720;51.958;4.540;2024-02-04T05:18:45;23.87;;;8.90;;
13303;SDS011;6720;51.958;4.540;2024-02-04T05:21:10;25.23;;;9.20;;
13303;SDS011;6720;51.958;4.540;2024-02-04T05:23:36;27.33;;;10.23;;
13303;SDS011;6720;51.958;4.540;2024-02-04T05:26:03;18.77;;;8.23;;
13303;SDS011;6720;51.958;4.540;2024-02-04T05:28:29;18.00;;;8.20;;
13303;SDS011;6720;51.958;4.540;2024-02-04T05:30:54;15.57;;;8.17;;
13303;SDS011;6720;51.958;4.540;2024-02-04T05:33:20;17.87;;;7.47;;
13303;SDS011;6720;51.958;4.540;2024-02-04T05:35:45;22.03;;;8.23;;
13303;SDS011;6720;51.958;4.540;2024-02-04T05:38:10;16.47;;;7.80;;
13303;SDS011;6720;51.958;4.540;2024-02-04T05:40:36;15.30;;;8.00;;
13303;SDS011;6720;51.958;4.540;2024-02-04T05:43:01;15.03;;;7.87;;
13303;SDS011;6720;51.958;4.540;2024-02-04T05:45:32;15.60;;;7.27;;
13303;SDS011;6720;51.958;4.540;2024-02-04T05:47:57;16.73;;;7.10;;
13303;SDS011;6720;51.958;4.540;2024-02-04T05:50:23;17.43;;;6.57;;
13303;SDS011;6720;51.958;4.540;2024-02-04T05:52:48;13.33;;;7.03;;
13303;SDS011;6720;51.958;4.540;2024-02-04T05:55:14;15.97;;;6.50;;
13303;SDS011;6720;51.958;4.540;2024-02-04T05:57:40;13.83;;;6.47;;
13303;SDS011;6720;51.958;4.540;2024-02-04T06:00:05;12.87;;;6.73;;
13303;SDS011;6720;51.958;4.540;2024-02-04T06:02:32;15.13;;;6.70;;
13303;SDS011;6720;51.958;4.540;2024-02-04T06:04:58;15.13;;;7.67;;
13303;SDS011;6720;51.958;4.540;2024-02-04T06:07:23;15.83;;;7.20;;
13303;SDS011;6720;51.958;4.540;2024-02-04T06:09:49;15.27;;;7.30;;
13303;SDS011;6720;51.958;4.540;2024-02-04T06:12:14;16.10;;;8.30;;
13303;SDS011;6720;51.958;4.540;2024-02-04T06:14:39;14.47;;;8.03;;
13303;SDS011;6720;51.958;4.540;2024-02-04T06:17:05;13.20;;;8.40;;
13303;SDS011;6720;51.958;4.540;2024-02-04T06:19:33;14.37;;;8.63;;
13303;SDS011;6720;51.958;4.540;2024-02-04T06:22:00;15.77;;;9.03;;
13303;SDS011;6720;51.958;4.540;2024-02-04T06:24:25;16.90;;;9.33;;
13303;SDS011;6720;51.958;4.540;2024-02-04T06:26:51;15.93;;;9.33;;
13303;SDS011;6720;51.958;4.540;2024-02-04T06:29:16;15.33;;;8.83;;
13303;SDS011;6720;51.958;4.540;2024-02-04T06:31:45;15.77;;;7.80;;
13303;SDS011;6720;51.958;4.540;2024-02-04T06:34:12;13.90;;;8.60;;
13303;SDS011;6720;51.958;4.540;2024-02-04T06:36:37;17.43;;;8.10;;
13303;SDS011;6720;51.958;4.540;2024-02-04T06:39:03;17.73;;;8.63;;
13303;SDS011;6720;51.958;4.540;2024-02-04T06:41:28;16.80;;;8.97;;
13303;SDS011;6720;51.958;4.540;2024-02-04T06:43:54;14.40;;;8.17;;
13303;SDS011;6720;51.958;4.540;2024-02-04T06:46:25;22.97;;;8.20;;
13303;SDS011;6720;51.958;4.540;2024-02-04T06:48:53;14.97;;;8.13;;
13303;SDS011;6720;51.958;4.540;2024-02-04T06:51:19;15.50;;;8.10;;
13303;SDS011;6720;51.958;4.540;2024-02-04T06:53:45;15.00;;;7.60;;
13303;SDS011;6720;51.958;4.540;2024-02-04T06:56:10;15.83;;;8.20;;
13303;SDS011;6720;51.958;4.540;2024-02-04T06:58:39;18.17;;;8.33;;
13303;SDS011;6720;51.958;4.540;2024-02-04T07:01:08;19.17;;;9.40;;
13303;SDS011;6720;51.958;4.540;2024-02-04T07:03:34;24.97;;;9.23;;
13303;SDS011;6720;51.958;4.540;2024-02-04T07:05:59;20.33;;;10.90;;
13303;SDS011;6720;51.958;4.540;2024-02-04T07:08:25;24.13;;;11.40;;
13303;SDS011;6720;51.958;4.540;2024-02-04T07:10:51;27.23;;;11.07;;
13303;SDS011;6720;51.958;4.540;2024-02-04T07:13:17;20.73;;;10.03;;
13303;SDS011;6720;51.958;4.540;2024-02-04T07:15:43;22.67;;;10.13;;
13303;SDS011;6720;51.958;4.540;2024-02-04T07:18:09;21.33;;;9.67;;
13303;SDS011;6720;51.958;4.540;2024-02-04T07:20:34;22.63;;;8.73;;
13303;SDS011;6720;51.958;4.540;2024-02-04T07:23:00;19.77;;;8.93;;
13303;SDS011;6720;51.958;4.540;2024-02-04T07:25:25;17.27;;;8.33;;
13303;SDS011;6720;51.958;4.540;2024-02-04T07:27:51;19.23;;;8.63;;
13303;SDS011;6720;51.958;4.540;2024-02-04T07:30:16;17.83;;;8.50;;
13303;SDS011;6720;51.958;4.540;2024-02-04T07:32:42;15.17;;;7.97;;
13303;SDS011;6720;51.958;4.540;2024-02-04T07:35:08;15.80;;;7.70;;
13303;SDS011;6720;51.958;4.540;2024-02-04T07:37:35;14.70;;;7.87;;
13303;SDS011;6720;51.958;4.540;2024-02-04T07:40:01;18.40;;;8.20;;
13303;SDS011;6720;51.958;4.540;2024-02-04T07:42:26;19.40;;;7.97;;
13303;SDS011;6720;51.958;4.540;2024-02-04T07:44:52;14.93;;;7.43;;
13303;SDS011;6720;51.958;4.540;2024-02-04T07:47:18;14.47;;;7.10;;
13303;SDS011;6720;51.958;4.540;2024-02-04T07:49:46;18.17;;;7.57;;
13303;SDS011;6720;51.958;4.540;2024-02-04T07:52:13;11.80;;;6.93;;
13303;SDS011;6720;51.958;4.540;2024-02-04T07:54:38;16.97;;;6.67;;
13303;SDS011;6720;51.958;4.540;2024-02-04T07:57:03;13.13;;;7.23;;
13303;SDS011;6720;51.958;4.540;2024-02-04T07:59:30;10.77;;;7.17;;
13303;SDS011;6720;51.958;4.540;2024-02-04T08:01:56;10.23;;;6.10;;
13303;SDS011;6720;51.958;4.540;2024-02-04T08:04:22;12.50;;;6.63;;
13303;SDS011;6720;51.958;4.540;2024-02-04T08:06:49;10.20;;;5.07;;
13303;SDS011;6720;51.958;4.540;2024-02-04T08:09:17;9.47;;;5.23;;
13303;SDS011;6720;51.958;4.540;2024-02-04T08:11:42;9.27;;;5.47;;
13303;SDS011;6720;51.958;4.540;2024-02-04T08:14:09;10.37;;;5.30;;
13303;SDS011;6720;51.958;4.540;2024-02-04T08:16:34;11.33;;;5.30;;
13303;SDS011;6720;51.958;4.540;2024-02-04T08:19:00;9.80;;;4.50;;
13303;SDS011;6720;51.958;4.540;2024-02-04T08:21:25;11.63;;;4.57;;
13303;SDS011;6720;51.958;4.540;2024-02-04T08:23:51;7.50;;;4.63;;
13303;SDS011;6720;51.958;4.540;2024-02-04T08:26:17;9.70;;;4.67;;
13303;SDS011;6720;51.958;4.540;2024-02-04T08:28:42;6.70;;;3.63;;
13303;SDS011;6720;51.958;4.540;2024-02-04T08:31:08;7.13;;;4.57;;
13303;SDS011;6720;51.958;4.540;2024-02-04T08:33:34;6.90;;;4.10;;
13303;SDS011;6720;51.958;4.540;2024-02-04T08:35:59;6.37;;;3.60;;
13303;SDS011;6720;51.958;4.540;2024-02-04T08:38:25;11.60;;;4.27;;
13303;SDS011;6720;51.958;4.540;2024-02-04T08:40:50;10.17;;;3.80;;
13303;SDS011;6720;51.958;4.540;2024-02-04T08:43:15;6.93;;;3.67;;
13303;SDS011;6720;51.958;4.540;2024-02-04T08:45:43;7.77;;;4.03;;
13303;SDS011;6720;51.958;4.540;2024-02-04T08:48:10;8.00;;;3.63;;
13303;SDS011;6720;51.958;4.540;2024-02-04T08:50:35;7.67;;;3.13;;
13303;SDS011;6720;51.958;4.540;2024-02-04T08:53:01;7.17;;;3.33;;
13303;SDS011;6720;51.958;4.540;2024-02-04T08:55:29;8.07;;;3.50;;
13303;SDS011;6720;51.958;4.540;2024-02-04T08:57:55;6.93;;;3.30;;
13303;SDS011;6720;51.958;4.540;2024-02-04T09:00:20;5.90;;;3.10;;
13303;SDS011;6720;51.958;4.540;2024-02-04T09:02:46;8.97;;;3.33;;
13303;SDS011;6720;51.958;4.540;2024-02-04T09:05:15;6.87;;;3.40;;
13303;SDS011;6720;51.958;4.540;2024-02-04T09:07:41;6.70;;;3.07;;
13303;SDS011;6720;51.958;4.540;2024-02-04T09:10:07;8.90;;;3.30;;
13303;SDS011;6720;51.958;4.540;2024-02-04T09:12:32;5.10;;;2.97;;
13303;SDS011;6720;51.958;4.540;2024-02-04T09:14:58;7.17;;;3.20;;
13303;SDS011;6720;51.958;4.540;2024-02-04T09:17:25;7.10;;;2.87;;
13303;SDS011;6720;51.958;4.540;2024-02-04T09:19:50;5.37;;;2.90;;
13303;SDS011;6720;51.958;4.540;2024-02-04T09:22:15;6.00;;;3.07;;
13303;SDS011;6720;51.958;4.540;2024-02-04T09:24:41;5.90;;;2.90;;
13303;SDS011;6720;51.958;4.540;2024-02-04T09:27:07;5.33;;;2.57;;
13303;SDS011;6720;51.958;4.540;2024-02-04T09:29:32;5.33;;;2.27;;
13303;SDS011;6720;51.958;4.540;2024-02-04T09:31:57;4.00;;;2.40;;
13303;SDS011;6720;51.958;4.540;2024-02-04T09:34:23;4.20;;;2.70;;
13303;SDS011;6720;51.958;4.540;2024-02-04T09:36:48;5.93;;;3.00;;
13303;SDS011;6720;51.958;4.540;2024-02-04T09:39:14;4.90;;;2.97;;
13303;SDS011;6720;51.958;4.540;2024-02-04T09:41:39;6.13;;;3.57;;
13303;SDS011;6720;51.958;4.540;2024-02-04T09:44:05;8.00;;;3.93;;
13303;SDS011;6720;51.958;4.540;2024-02-04T09:46:31;8.00;;;3.77;;
13303;SDS011;6720;51.958;4.540;2024-02-04T09:48:57;10.20;;;4.43;;
13303;SDS011;6720;51.958;4.540;2024-02-04T09:51:25;7.50;;;3.37;;
13303;SDS011;6720;51.958;4.540;2024-02-04T09:53:52;8.23;;;3.87;;
13303;SDS011;6720;51.958;4.540;2024-02-04T09:56:18;11.90;;;3.53;;
13303;SDS011;6720;51.958;4.540;2024-02-04T09:58:47;11.27;;;4.00;;
13303;SDS011;6720;51.958;4.540;2024-02-04T10:01:13;6.63;;;3.40;;
13303;SDS011;6720;51.958;4.540;2024-02-04T10:03:40;8.80;;;3.90;;
13303;SDS011;6720;51.958;4.540;2024-02-04T10:06:06;8.60;;;3.80;;
13303;SDS011;6720;51.958;4.540;2024-02-04T10:08:31;14.13;;;4.30;;
13303;SDS011;6720;51.958;4.540;2024-02-04T10:10:57;13.17;;;4.30;;
13303;SDS011;6720;51.958;4.540;2024-02-04T10:13:24;23.40;;;4.43;;
13303;SDS011;6720;51.958;4.540;2024-02-04T10:15:50;9.43;;;3.40;;
13303;SDS011;6720;51.958;4.540;2024-02-04T10:18:17;30.47;;;4.57;;
13303;SDS011;6720;51.958;4.540;2024-02-04T10:20:43;6.80;;;4.00;;
13303;SDS011;6720;51.958;4.540;2024-02-04T10:23:08;10.30;;;4.03;;
13303;SDS011;6720;51.958;4.540;2024-02-04T10:25:34;9.47;;;3.77;;
13303;SDS011;6720;51.958;4.540;2024-02-04T10:27:59;10.10;;;3.43;;
13303;SDS011;6720;51.958;4.540;2024-02-04T10:30:25;9.73;;;3.30;;
13303;SDS011;6720;51.958;4.540;2024-02-04T10:32:51;6.40;;;2.93;;
13303;SDS011;6720;51.958;4.540;2024-02-04T10:35:17;25.07;;;4.93;;
13303;SDS011;6720;51.958;4.540;2024-02-04T10:37:47;8.93;;;3.37;;
13303;SDS011;6720;51.958;4.540;2024-02-04T10:40:13;8.77;;;3.07;;
13303;SDS011;6720;51.958;4.540;2024-02-04T10:42:38;10.33;;;3.10;;
13303;SDS011;6720;51.958;4.540;2024-02-04T10:45:08;9.43;;;3.73;;
13303;SDS011;6720;51.958;4.540;2024-02-04T10:47:36;8.57;;;3.37;;
13303;SDS011;6720;51.958;4.540;2024-02-04T10:50:03;11.93;;;3.70;;
13303;SDS011;6720;51.958;4.540;2024-02-04T10:52:39;16.73;;;3.87;;
13303;SDS011;6720;51.958;4.540;2024-02-04T10:55:07;10.47;;;3.93;;
13303;SDS011;6720;51.958;4.540;2024-02-04T10:57:34;10.07;;;3.30;;
13303;SDS011;6720;51.958;4.540;2024-02-04T11:00:01;13.27;;;4.10;;
13303;SDS011;6720;51.958;4.540;2024-02-04T11:02:33;8.33;;;3.13;;
13303;SDS011;6720;51.958;4.540;2024-02-04T11:04:59;8.20;;;2.90;;
13303;SDS011;6720;51.958;4.540;2024-02-04T11:07:26;8.73;;;3.10;;
13303;SDS011;6720;51.958;4.540;2024-02-04T11:09:56;10.60;;;3.00;;
13303;SDS011;6720;51.958;4.540;2024-02-04T11:12:22;9.93;;;3.43;;
13303;SDS011;6720;51.958;4.540;2024-02-04T11:14:50;9.77;;;3.43;;
13303;SDS011;6720;51.958;4.540;2024-02-04T11:25:57;8.83;;;3.37;;
13303;SDS011;6720;51.958;4.540;2024-02-04T11:28:24;9.40;;;3.40;;
13303;SDS011;6720;51.958;4.540;2024-02-04T11:30:51;9.03;;;3.60;;
13303;SDS011;6720;51.958;4.540;2024-02-04T11:33:20;9.73;;;3.40;;
13303;SDS011;6720;51.958;4.540;2024-02-04T11:35:47;10.67;;;3.40;;
13303;SDS011;6720;51.958;4.540;2024-02-04T11:38:29;9.87;;;3.40;;
13303;SDS011;6720;51.958;4.540;2024-02-04T11:40:56;14.33;;;4.07;;
13303;SDS011;6720;51.958;4.540;2024-02-04T11:43:22;12.80;;;3.60;;
13303;SDS011;6720;51.958;4.540;2024-02-04T11:45:48;10.20;;;3.67;;
13303;SDS011;6720;51.958;4.540;2024-02-04T11:48:13;9.77;;;3.73;;
13303;SDS011;6720;51.958;4.540;2024-02-04T11:50:39;10.90;;;3.47;;
13303;SDS011;6720;51.958;4.540;2024-02-04T11:53:11;10.13;;;3.80;;
13303;SDS011;6720;51.958;4.540;2024-02-04T11:55:41;12.27;;;3.60;;
13303;SDS011;6720;51.958;4.540;2024-02-04T11:58:07;9.53;;;3.67;;
13303;SDS011;6720;51.958;4.540;2024-02-04T12:00:34;8.67;;;3.60;;
13303;SDS011;6720;51.958;4.540;2024-02-04T12:03:06;9.53;;;3.57;;
13303;SDS011;6720;51.958;4.540;2024-02-04T12:05:36;8.80;;;3.03;;
13303;SDS011;6720;51.958;4.540;2024-02-04T12:08:04;10.47;;;4.57;;
13303;SDS011;6720;51.958;4.540;2024-02-04T12:10:31;10.23;;;4.27;;
13303;SDS011;6720;51.958;4.540;2024-02-04T12:13:07;8.73;;;3.80;;
13303;SDS011;6720;51.958;4.540;2024-02-04T12:15:35;10.90;;;4.40;;
13303;SDS011;6720;51.958;4.540;2024-02-04T12:18:08;10.77;;;3.90;;
13303;SDS011;6720;51.958;4.540;2024-02-04T12:20:35;14.97;;;4.33;;
13303;SDS011;6720;51.958;4.540;2024-02-04T12:23:05;12.03;;;4.63;;
13303;SDS011;6720;51.958;4.540;2024-02-04T12:25:31;7.63;;;3.77;;
13303;SDS011;6720;51.958;4.540;2024-02-04T12:28:00;15.93;;;4.27;;
13303;SDS011;6720;51.958;4.540;2024-02-04T12:30:29;15.07;;;4.17;;
13303;SDS011;6720;51.958;4.540;2024-02-04T12:32:56;15.97;;;5.10;;
13303;SDS011;6720;51.958;4.540;2024-02-04T12:35:25;11.03;;;4.73;;
13303;SDS011;6720;51.958;4.540;2024-02-04T12:37:52;12.63;;;4.47;;
13303;SDS011;6720;51.958;4.540;2024-02-04T12:40:26;12.30;;;3.73;;
13303;SDS011;6720;51.958;4.540;2024-02-04T12:42:55;10.73;;;5.10;;
13303;SDS011;6720;51.958;4.540;2024-02-04T12:45:22;15.63;;;5.10;;
13303;SDS011;6720;51.958;4.540;2024-02-04T12:47:49;12.63;;;4.60;;
13303;SDS011;6720;51.958;4.540;2024-02-04T12:50:15;12.13;;;4.50;;
13303;SDS011;6720;51.958;4.540;2024-02-04T12:52:41;14.03;;;4.33;;
13303;SDS011;6720;51.958;4.540;2024-02-04T12:55:07;14.67;;;4.43;;
13303;SDS011;6720;51.958;4.540;2024-02-04T12:57:32;11.37;;;4.23;;
13303;SDS011;6720;51.958;4.540;2024-02-04T13:00:04;11.50;;;3.90;;
13303;SDS011;6720;51.958;4.540;2024-02-04T13:02:31;10.90;;;4.17;;
13303;SDS011;6720;51.958;4.540;2024-02-04T13:04:59;14.07;;;4.47;;
13303;SDS011;6720;51.958;4.540;2024-02-04T13:07:24;16.13;;;4.80;;
13303;SDS011;6720;51.958;4.540;2024-02-04T13:09:57;12.67;;;4.23;;
13303;SDS011;6720;51.958;4.540;2024-02-04T13:12:26;11.40;;;4.07;;
13303;SDS011;6720;51.958;4.540;2024-02-04T13:14:52;14.07;;;4.03;;
13303;SDS011;6720;51.958;4.540;2024-02-04T13:17:17;14.17;;;5.20;;
13303;SDS011;6720;51.958;4.540;2024-02-04T13:19:43;11.07;;;3.70;;
13303;SDS011;6720;51.958;4.540;2024-02-04T13:22:09;10.50;;;4.00;;
13303;SDS011;6720;51.958;4.540;2024-02-04T13:24:35;9.67;;;3.90;;
13303;SDS011;6720;51.958;4.540;2024-02-04T13:27:01;8.30;;;3.87;;
13303;SDS011;6720;51.958;4.540;2024-02-04T13:29:34;14.33;;;4.40;;
13303;SDS011;6720;51.958;4.540;2024-02-04T13:35:59;11.33;;;3.73;;
13303;SDS011;6720;51.958;4.540;2024-02-04T13:38:25;12.80;;;3.87;;
13303;SDS011;6720;51.958;4.540;2024-02-04T13:40:50;10.47;;;3.93;;
13303;SDS011;6720;51.958;4.540;2024-02-04T13:43:15;12.03;;;4.03;;
13303;SDS011;6720;51.958;4.540;2024-02-04T13:45:41;13.77;;;4.40;;
13303;SDS011;6720;51.958;4.540;2024-02-04T13:48:07;15.10;;;4.90;;
13303;SDS011;6720;51.958;4.540;2024-02-04T13:50:32;8.83;;;3.60;;
13303;SDS011;6720;51.958;4.540;2024-02-04T13:52:58;11.03;;;4.30;;
13303;SDS011;6720;51.958;4.540;2024-02-04T13:55:24;11.30;;;4.30;;
13303;SDS011;6720;51.958;4.540;2024-02-04T13:57:50;20.83;;;4.83;;
13303;SDS011;6720;51.958;4.540;2024-02-04T14:00:16;14.03;;;4.37;;
13303;SDS011;6720;51.958;4.540;2024-02-04T14:02:42;10.87;;;4.57;;
13303;SDS011;6720;51.958;4.540;2024-02-04T14:05:08;10.93;;;4.20;;
13303;SDS011;6720;51.958;4.540;2024-02-04T14:07:33;8.50;;;3.93;;
13303;SDS011;6720;51.958;4.540;2024-02-04T14:09:59;9.93;;;4.30;;
13303;SDS011;6720;51.958;4.540;2024-02-04T14:12:24;14.60;;;4.70;;
13303;SDS011;6720;51.958;4.540;2024-02-04T14:14:50;16.93;;;4.47;;
13303;SDS011;6720;51.958;4.540;2024-02-04T14:17:15;12.23;;;3.63;;
13303;SDS011;6720;51.958;4.540;2024-02-04T14:19:41;16.60;;;4.60;;
13303;SDS011;6720;51.958;4.540;2024-02-04T14:22:06;12.37;;;4.53;;
13303;SDS011;6720;51.958;4.540;2024-02-04T14:24:31;60.37;;;34.73;;
13303;SDS011;6720;51.958;4.540;2024-02-04T14:26:57;27.70;;;4.37;;
13303;SDS011;6720;51.958;4.540;2024-02-04T14:29:24;15.43;;;4.90;;
13303;SDS011;6720;51.958;4.540;2024-02-04T14:31:51;16.37;;;4.93;;
13303;SDS011;6720;51.958;4.540;2024-02-04T14:34:17;16.77;;;4.87;;
13303;SDS011;6720;51.958;4.540;2024-02-04T14:36:42;15.87;;;6.00;;
13303;SDS011;6720;51.958;4.540;2024-02-04T14:39:08;14.10;;;4.83;;
13303;SDS011;6720;51.958;4.540;2024-02-04T14:41:36;13.60;;;5.03;;
13303;SDS011;6720;51.958;4.540;2024-02-04T14:44:02;15.33;;;5.40;;
13303;SDS011;6720;51.958;4.540;2024-02-04T14:46:28;14.17;;;5.63;;
13303;SDS011;6720;51.958;4.540;2024-02-04T14:48:53;16.07;;;4.73;;
13303;SDS011;6720;51.958;4.540;2024-02-04T14:51:19;14.30;;;5.20;;
13303;SDS011;6720;51.958;4.540;2024-02-04T14:53:44;13.37;;;4.87;;
13303;SDS011;6720;51.958;4.540;2024-02-04T14:56:10;19.00;;;5.60;;
13303;SDS011;6720;51.958;4.540;2024-02-04T14:58:35;16.83;;;5.67;;
13303;SDS011;6720;51.958;4.540;2024-02-04T15:01:02;16.87;;;5.10;;